Time;durP1;ratioP1;P1;durP2;ratioP2;P2;SDS_P1;SDS_P2;PMS_P1;PMS_P2;Temp;Humidity;BMP_temperature;BMP_pressure;BME280_temperature;BME280_humidity;BME280_pressure;Samples;Min_cycle;Max_cycle;Signal;HPM_P1;HPM_P2
2022/07/31 00:02:09;;;;;;;2.40;2.20;;;21.10;60.40;;;;;;7388540;19;20405;-45
2022/07/31 00:04:38;;;;;;;3.70;3.40;;;21.00;61.30;;;;;;7388189;19;20391;-45
2022/07/31 00:07:07;;;;;;;3.10;2.70;;;21.00;61.70;;;;;;7388285;19;20380;-45
2022/07/31 00:09:39;;;;;;;3.43;2.80;;;21.00;61.70;;;;;;7385596;19;20753;-45
2022/07/31 00:12:11;;;;;;;4.37;2.43;;;21.00;61.20;;;;;;7389827;19;20385;-45
2022/07/31 00:14:41;;;;;;;2.90;2.70;;;20.90;61.40;;;;;;7387920;19;20510;-45
2022/07/31 00:17:10;;;;;;;2.43;2.17;;;21.00;62.00;;;;;;7387267;19;20391;-45
2022/07/31 00:19:40;;;;;;;2.70;2.50;;;21.00;60.80;;;;;;7390111;19;20384;-45
2022/07/31 00:22:09;;;;;;;2.47;2.27;;;20.90;62.00;;;;;;7388767;19;21441;-45
2022/07/31 00:24:39;;;;;;;6.23;2.67;;;20.80;61.80;;;;;;7389931;19;20392;-45
2022/07/31 00:27:11;;;;;;;2.37;2.17;;;20.90;61.70;;;;;;7387643;19;20416;-45
2022/07/31 00:29:41;;;;;;;3.30;3.00;;;21.00;61.00;;;;;;7385450;19;20408;-45
2022/07/31 00:32:11;;;;;;;2.80;2.40;;;21.10;61.30;;;;;;7387889;19;21224;-45
2022/07/31 00:34:41;;;;;;;3.73;2.27;;;21.30;60.60;;;;;;7388491;19;21106;-45
2022/07/31 00:37:11;;;;;;;2.27;2.07;;;21.40;59.80;;;;;;7386183;19;20930;-45
2022/07/31 00:39:41;;;;;;;2.63;2.37;;;21.40;59.70;;;;;;7388093;19;20380;-45
2022/07/31 00:42:21;;;;;;;3.37;2.50;;;21.40;59.90;;;;;;7389206;19;20409;-45
2022/07/31 00:44:51;;;;;;;3.03;2.73;;;21.30;59.80;;;;;;7387882;19;20372;-45
2022/07/31 00:47:21;;;;;;;2.77;2.47;;;21.20;59.30;;;;;;7387446;19;20372;-46
2022/07/31 00:49:50;;;;;;;3.67;2.87;;;21.10;60.00;;;;;;7385243;19;20781;-46
2022/07/31 00:52:20;;;;;;;3.10;2.80;;;21.00;60.00;;;;;;7387717;19;20391;-45
2022/07/31 00:54:49;;;;;;;3.57;2.20;;;21.10;60.70;;;;;;7388310;19;20372;-46
2022/07/31 00:57:22;;;;;;;5.47;2.23;;;20.90;60.80;;;;;;7387894;19;20376;-46
2022/07/31 00:59:51;;;;;;;3.43;3.03;;;21.00;60.20;;;;;;7385367;19;20792;-45
2022/07/31 01:02:21;;;;;;;2.73;2.47;;;20.90;59.80;;;;;;7383981;19;20392;-46
2022/07/31 01:04:50;;;;;;;3.47;2.93;;;20.80;59.60;;;;;;7387589;19;20376;-46
2022/07/31 01:07:20;;;;;;;2.50;2.30;;;20.90;60.30;;;;;;7385959;19;20383;-47
2022/07/31 01:09:52;;;;;;;3.87;2.40;;;20.90;60.80;;;;;;7384159;19;20384;-46
2022/07/31 01:12:31;;;;;;;3.13;2.83;;;20.80;60.90;;;;;;7386175;19;20388;-46
2022/07/31 01:15:06;;;;;;;3.00;2.50;;;20.70;61.80;;;;;;7388522;19;20383;-46
2022/07/31 01:17:38;;;;;;;4.47;3.10;;;20.80;61.80;;;;;;7385903;19;20379;-46
2022/07/31 01:20:10;;;;;;;3.47;3.17;;;20.80;61.90;;;;;;7387095;19;20387;-45
2022/07/31 01:23:08;;;;;;;2.60;2.40;;;20.90;61.40;;;;;;7385521;19;20376;-45
2022/07/31 01:25:57;;;;;;;4.40;2.63;;;20.90;61.90;;;;;;7384364;19;20913;-45
2022/07/31 01:28:47;;;;;;;6.00;3.10;;;20.80;62.50;;;;;;7384916;19;20380;-44
2022/07/31 01:31:21;;;;;;;2.93;2.73;;;20.70;62.90;;;;;;7385458;19;20412;-45
2022/07/31 01:33:53;;;;;;;3.13;2.93;;;20.60;63.00;;;;;;7387127;19;20372;-45
2022/07/31 01:36:33;;;;;;;2.90;2.70;;;20.50;63.40;;;;;;7384547;19;20749;-45
2022/07/31 01:39:04;;;;;;;3.70;2.87;;;20.40;64.20;;;;;;7384834;19;20372;-45
2022/07/31 01:41:39;;;;;;;3.10;2.63;;;20.40;65.50;;;;;;7385432;19;20372;-45
2022/07/31 01:44:14;;;;;;;3.10;2.83;;;20.40;64.10;;;;;;7384608;19;20423;-44
2022/07/31 01:46:48;;;;;;;3.50;2.77;;;20.40;64.40;;;;;;7385178;19;20747;-44
2022/07/31 01:49:20;;;;;;;3.90;2.63;;;20.40;65.40;;;;;;7383553;19;20456;-45
2022/07/31 01:51:50;;;;;;;5.00;2.90;;;20.40;65.20;;;;;;7385304;19;20388;-45
2022/07/31 01:54:21;;;;;;;5.27;3.00;;;20.30;64.70;;;;;;7382186;19;20417;-45
2022/07/31 01:56:52;;;;;;;3.60;3.00;;;20.30;65.70;;;;;;7384232;19;20377;-45
2022/07/31 01:59:25;;;;;;;4.23;3.57;;;20.20;65.90;;;;;;7383760;19;20382;-46
2022/07/31 02:02:12;;;;;;;5.77;3.80;;;20.10;66.40;;;;;;7384223;19;20409;-45
2022/07/31 02:04:45;;;;;;;3.97;3.10;;;19.90;67.30;;;;;;7384275;19;20376;-46
2022/07/31 02:07:17;;;;;;;3.77;3.20;;;19.80;68.30;;;;;;7384173;19;20773;-46
2022/07/31 02:09:49;;;;;;;3.83;3.00;;;19.80;68.60;;;;;;7381708;19;20960;-45
2022/07/31 02:12:19;;;;;;;3.70;3.40;;;19.90;69.00;;;;;;7387153;19;20383;-46
2022/07/31 02:14:52;;;;;;;4.13;3.33;;;19.90;68.70;;;;;;7384382;19;20384;-46
2022/07/31 02:17:22;;;;;;;4.20;3.20;;;19.90;69.70;;;;;;7383618;19;20376;-46
2022/07/31 02:20:22;;;;;;;5.03;3.40;;;19.70;70.90;;;;;;7384170;19;20397;-46
2022/07/31 02:22:52;;;;;;;3.40;2.90;;;19.80;70.70;;;;;;7382455;19;20383;-45
2022/07/31 02:25:23;;;;;;;5.10;3.67;;;19.90;70.50;;;;;;7382810;19;20384;-46
2022/07/31 02:27:53;;;;;;;5.17;3.30;;;19.70;71.80;;;;;;7384248;19;20371;-46
2022/07/31 02:30:27;;;;;;;6.27;3.50;;;19.60;73.10;;;;;;7383036;19;20445;-46
2022/07/31 02:32:58;;;;;;;3.70;3.40;;;19.60;74.10;;;;;;7380339;19;20385;-46
2022/07/31 02:35:28;;;;;;;3.53;3.23;;;19.60;74.50;;;;;;7380659;19;20368;-46
2022/07/31 02:37:58;;;;;;;3.40;3.10;;;19.40;75.60;;;;;;7383304;19;20388;-46
2022/07/31 02:40:28;;;;;;;5.80;3.60;;;19.40;75.10;;;;;;7382811;19;20376;-46
2022/07/31 02:42:58;;;;;;;4.27;3.47;;;19.40;75.50;;;;;;7383529;19;20967;-46
2022/07/31 02:45:31;;;;;;;3.40;3.00;;;19.50;75.00;;;;;;7383909;19;20376;-46
2022/07/31 02:48:01;;;;;;;4.43;4.03;;;19.50;72.80;;;;;;7383654;19;20368;-46
2022/07/31 02:50:31;;;;;;;6.37;2.90;;;19.50;71.90;;;;;;7381255;19;20916;-46
2022/07/31 02:53:00;;;;;;;3.40;2.83;;;19.30;72.30;;;;;;7382887;19;20372;-46
2022/07/31 02:55:30;;;;;;;3.13;2.83;;;19.40;71.10;;;;;;7382346;19;20384;-46
2022/07/31 02:58:00;;;;;;;2.70;2.50;;;19.60;70.60;;;;;;7383183;19;20804;-46
2022/07/31 03:00:32;;;;;;;3.20;2.90;;;19.40;71.00;;;;;;7382122;19;20463;-46
2022/07/31 03:03:02;;;;;;;3.90;3.10;;;19.50;71.20;;;;;;7382105;19;20396;-46
2022/07/31 03:05:32;;;;;;;3.53;3.23;;;19.60;71.50;;;;;;7382221;19;20909;-46
2022/07/31 03:08:02;;;;;;;3.67;2.97;;;19.60;72.30;;;;;;7382334;19;20381;-46
2022/07/31 03:10:31;;;;;;;4.53;3.10;;;19.60;73.40;;;;;;7380861;19;20924;-46
2022/07/31 03:13:08;;;;;;;3.17;2.87;;;19.40;75.00;;;;;;7381577;19;20391;-46
2022/07/31 03:15:41;;;;;;;4.90;2.77;;;19.30;74.60;;;;;;7382785;19;20881;-46
2022/07/31 03:18:13;;;;;;;5.80;3.90;;;19.20;75.90;;;;;;7382439;19;20910;-46
2022/07/31 03:20:44;;;;;;;3.80;3.00;;;19.10;76.80;;;;;;7383077;19;20841;-46
2022/07/31 03:23:15;;;;;;;3.33;3.03;;;19.00;77.30;;;;;;7382644;19;20380;-46
2022/07/31 03:25:55;;;;;;;4.03;3.23;;;19.00;76.30;;;;;;7381998;19;20383;-46
2022/07/31 03:28:25;;;;;;;3.67;3.33;;;19.00;76.90;;;;;;7383158;19;20977;-46
2022/07/31 03:30:58;;;;;;;3.63;3.13;;;18.90;77.50;;;;;;7381823;19;20419;-46
2022/07/31 03:33:33;;;;;;;4.47;3.00;;;18.90;77.50;;;;;;7382240;19;20383;-46
2022/07/31 03:36:03;;;;;;;4.73;3.57;;;19.00;75.00;;;;;;7388501;19;20982;-46
2022/07/31 03:38:33;;;;;;;3.40;3.10;;;18.90;74.40;;;;;;7390280;19;20913;-46
2022/07/31 03:41:05;;;;;;;5.00;3.50;;;19.10;74.50;;;;;;7388487;19;20924;-46
2022/07/31 03:43:35;;;;;;;3.17;2.87;;;19.20;74.30;;;;;;7389731;19;20427;-46
2022/07/31 03:46:08;;;;;;;3.00;2.70;;;19.20;74.50;;;;;;7389354;19;20387;-46
2022/07/31 03:48:37;;;;;;;3.93;2.93;;;19.40;72.80;;;;;;7389834;19;20843;-47
2022/07/31 03:51:09;;;;;;;2.93;2.63;;;19.30;72.60;;;;;;7388940;19;20921;-46
2022/07/31 03:53:40;;;;;;;5.27;3.50;;;19.20;73.00;;;;;;7387812;19;20368;-46
2022/07/31 03:56:10;;;;;;;3.57;3.27;;;19.30;73.50;;;;;;7389579;19;20380;-46
2022/07/31 03:58:40;;;;;;;4.20;3.30;;;19.30;74.60;;;;;;7388088;19;20889;-46
2022/07/31 04:01:13;;;;;;;5.50;2.80;;;19.40;73.70;;;;;;7385873;19;21048;-46
2022/07/31 04:03:43;;;;;;;3.67;3.37;;;19.50;72.60;;;;;;7388590;19;20459;-46
2022/07/31 04:06:33;;;;;;;3.93;3.37;;;19.60;72.20;;;;;;7389066;19;20380;-46
2022/07/31 04:09:03;;;;;;;3.43;3.13;;;19.70;72.00;;;;;;7388188;19;20928;-46
2022/07/31 04:11:32;;;;;;;3.53;3.13;;;19.80;72.20;;;;;;7388698;19;20376;-45
2022/07/31 04:14:02;;;;;;;3.53;3.20;;;19.80;72.50;;;;;;7388327;19;21445;-45
2022/07/31 04:16:34;;;;;;;4.90;3.07;;;19.80;72.10;;;;;;7388108;19;20391;-45
2022/07/31 04:19:03;;;;;;;5.57;3.37;;;19.80;73.20;;;;;;7389044;19;20373;-45
2022/07/31 04:21:33;;;;;;;3.50;3.20;;;19.50;73.40;;;;;;7388007;19;20376;-45
2022/07/31 04:24:02;;;;;;;5.23;3.17;;;19.30;74.70;;;;;;7387744;19;20428;-45
2022/07/31 04:26:57;;;;;;;4.10;3.70;;;19.10;75.50;;;;;;7389607;19;20385;-45
2022/07/31 04:29:33;;;;;;;5.57;3.43;;;19.30;74.10;;;;;;7388084;19;20376;-45
2022/07/31 04:32:08;;;;;;;3.37;2.80;;;19.00;75.40;;;;;;7386789;19;20368;-45
2022/07/31 04:34:43;;;;;;;4.30;3.33;;;19.20;75.60;;;;;;7387084;19;20433;-45
2022/07/31 04:37:13;;;;;;;3.47;3.17;;;19.20;75.80;;;;;;7386791;19;20757;-45
2022/07/31 04:39:42;;;;;;;3.00;2.80;;;19.40;74.80;;;;;;7387187;19;20376;-46
2022/07/31 04:42:13;;;;;;;4.67;2.97;;;19.50;74.10;;;;;;7385753;19;20384;-46
2022/07/31 04:44:43;;;;;;;3.80;2.77;;;19.50;73.90;;;;;;7387133;19;20380;-48
2022/07/31 04:47:16;;;;;;;6.00;4.00;;;19.50;74.10;;;;;;7387170;19;20383;-46
2022/07/31 04:49:49;;;;;;;3.20;3.00;;;19.70;73.40;;;;;;7385143;19;20367;-46
2022/07/31 04:52:20;;;;;;;2.97;2.63;;;19.70;72.00;;;;;;7388516;19;20388;-46
2022/07/31 04:54:52;;;;;;;6.70;4.20;;;19.70;72.30;;;;;;7386438;19;20387;-46
2022/07/31 04:57:23;;;;;;;7.43;3.30;;;19.70;72.90;;;;;;7385977;19;20397;-46
2022/07/31 04:59:53;;;;;;;3.70;3.40;;;19.90;73.40;;;;;;7385937;19;20428;-46
2022/07/31 05:02:25;;;;;;;4.30;3.00;;;19.90;73.00;;;;;;7384565;19;20395;-46
2022/07/31 05:04:55;;;;;;;3.37;3.07;;;19.90;73.90;;;;;;7387626;19;20387;-46
2022/07/31 05:07:24;;;;;;;3.63;3.30;;;20.00;74.50;;;;;;7385552;19;20755;-47
2022/07/31 05:09:53;;;;;;;3.30;3.00;;;20.00;74.40;;;;;;7386963;19;20938;-45
2022/07/31 05:12:23;;;;;;;5.37;3.27;;;20.10;72.60;;;;;;7386505;19;20368;-45
2022/07/31 05:14:52;;;;;;;3.30;3.00;;;20.20;72.90;;;;;;7388744;19;20417;-49
2022/07/31 05:17:25;;;;;;;4.33;3.43;;;20.30;72.40;;;;;;7385539;19;20413;-45
2022/07/31 05:20:15;;;;;;;3.50;3.13;;;20.40;71.10;;;;;;7387463;19;20407;-45
2022/07/31 05:23:05;;;;;;;3.30;3.00;;;20.60;70.60;;;;;;7386262;19;20392;-45
2022/07/31 05:26:00;;;;;;;3.80;3.23;;;20.60;71.50;;;;;;7387248;19;20376;-45
2022/07/31 05:28:31;;;;;;;3.40;3.20;;;20.80;71.50;;;;;;7386432;19;20405;-45
2022/07/31 05:31:01;;;;;;;5.30;3.40;;;20.80;70.80;;;;;;7384666;19;20810;-45
2022/07/31 05:33:37;;;;;;;4.60;3.83;;;20.90;70.50;;;;;;7385935;19;20385;-45
2022/07/31 05:36:09;;;;;;;4.53;3.40;;;21.10;69.50;;;;;;7385136;19;20409;-45
2022/07/31 05:38:39;;;;;;;3.63;3.33;;;21.30;68.60;;;;;;7386274;19;20396;-45
2022/07/31 05:41:28;;;;;;;4.37;3.63;;;21.40;67.10;;;;;;7387821;19;20392;-45
2022/07/31 05:44:17;;;;;;;3.33;3.03;;;21.50;65.90;;;;;;7387236;19;20376;-45
2022/07/31 05:46:49;;;;;;;3.93;3.23;;;21.60;64.10;;;;;;7385699;19;20360;-45
2022/07/31 05:49:25;;;;;;;4.00;3.60;;;21.70;64.60;;;;;;7385765;19;20376;-45
2022/07/31 05:51:56;;;;;;;3.73;3.37;;;21.90;63.70;;;;;;7384951;19;20372;-45
2022/07/31 05:54:26;;;;;;;3.53;3.00;;;21.90;63.30;;;;;;7384979;19;20732;-45
2022/07/31 05:57:25;;;;;;;3.60;3.30;;;22.00;62.60;;;;;;7383232;19;20417;-45
2022/07/31 05:59:55;;;;;;;4.00;3.33;;;22.00;62.60;;;;;;7384265;19;20447;-45
2022/07/31 06:02:25;;;;;;;4.27;3.60;;;22.00;61.30;;;;;;7385063;19;20400;-45
2022/07/31 06:05:13;;;;;;;3.50;3.20;;;22.00;62.30;;;;;;7385046;19;20406;-45
2022/07/31 06:07:45;;;;;;;3.27;3.00;;;21.90;64.10;;;;;;7384700;19;20391;-45
2022/07/31 06:10:14;;;;;;;4.40;3.83;;;22.10;63.30;;;;;;7384459;19;20390;-45
2022/07/31 06:12:44;;;;;;;3.80;3.50;;;22.30;62.10;;;;;;7384549;19;20412;-45
2022/07/31 06:15:13;;;;;;;4.03;3.20;;;22.60;60.70;;;;;;7384295;19;20376;-45
2022/07/31 06:17:46;;;;;;;4.60;3.20;;;22.70;60.50;;;;;;7384583;19;20916;-45
2022/07/31 06:20:27;;;;;;;4.17;3.17;;;22.80;60.60;;;;;;7383925;19;20379;-45
2022/07/31 06:22:57;;;;;;;4.10;3.30;;;22.90;60.00;;;;;;7385894;19;20380;-45
2022/07/31 06:25:30;;;;;;;4.00;3.40;;;23.00;61.10;;;;;;7384397;19;20380;-45
2022/07/31 06:28:00;;;;;;;3.80;3.40;;;23.00;60.30;;;;;;7383419;19;20794;-45
2022/07/31 06:30:30;;;;;;;5.13;4.13;;;23.00;59.90;;;;;;7384167;19;20380;-45
2022/07/31 06:33:01;;;;;;;5.10;3.73;;;23.00;59.60;;;;;;7383281;19;20737;-45
2022/07/31 06:35:34;;;;;;;4.20;3.20;;;23.00;59.00;;;;;;7384434;19;20387;-45
2022/07/31 06:38:36;;;;;;;4.07;3.40;;;23.00;59.60;;;;;;7384661;19;20435;-45
2022/07/31 06:41:48;;;;;;;3.83;3.53;;;22.90;59.50;;;;;;7381197;19;20476;-45
2022/07/31 06:44:34;;;;;;;4.13;3.53;;;23.00;60.00;;;;;;7380937;19;20387;-45
2022/07/31 06:47:24;;;;;;;4.13;3.73;;;23.10;59.90;;;;;;7383026;19;20488;-45
2022/07/31 06:50:02;;;;;;;4.90;3.43;;;23.10;60.00;;;;;;7385548;19;20384;-47
2022/07/31 06:52:40;;;;;;;5.30;3.30;;;23.20;60.40;;;;;;7385426;19;20766;-47
2022/07/31 06:55:12;;;;;;;4.40;3.50;;;23.40;59.60;;;;;;7383377;19;20383;-47
2022/07/31 06:57:43;;;;;;;4.77;3.37;;;23.60;59.50;;;;;;7383522;19;20847;-47
2022/07/31 07:00:15;;;;;;;3.50;3.20;;;23.70;59.20;;;;;;7382827;19;20435;-47
2022/07/31 07:02:44;;;;;;;3.83;3.53;;;23.90;59.00;;;;;;7382319;19;20399;-47
2022/07/31 07:05:14;;;;;;;5.23;3.50;;;24.00;57.90;;;;;;7381903;19;20376;-47
2022/07/31 07:07:46;;;;;;;4.90;3.50;;;24.20;57.40;;;;;;7382930;19;20419;-47
2022/07/31 07:10:16;;;;;;;3.80;3.50;;;24.20;57.10;;;;;;7384862;19;20380;-48
2022/07/31 07:13:09;;;;;;;4.10;3.13;;;24.30;56.70;;;;;;7390238;19;20405;-47
2022/07/31 07:15:39;;;;;;;9.27;6.90;;;24.40;55.90;;;;;;7390149;19;20380;-47
2022/07/31 07:18:09;;;;;;;4.40;4.00;;;24.50;56.20;;;;;;7390451;19;20762;-47
2022/07/31 07:20:52;;;;;;;4.13;3.77;;;24.60;55.80;;;;;;7391247;19;20398;-46
2022/07/31 07:23:24;;;;;;;4.20;3.20;;;24.70;55.80;;;;;;7389301;19;20379;-46
2022/07/31 07:26:09;;;;;;;3.83;3.33;;;24.80;55.50;;;;;;7390383;19;20799;-45
2022/07/31 07:28:39;;;;;;;3.33;3.03;;;24.90;55.60;;;;;;7388321;19;20371;-46
2022/07/31 07:31:11;;;;;;;3.40;3.13;;;25.00;55.70;;;;;;7387721;19;20873;-46
2022/07/31 07:33:40;;;;;;;4.20;3.70;;;25.20;55.00;;;;;;7389571;19;20368;-46
2022/07/31 07:36:13;;;;;;;4.00;3.30;;;25.20;54.40;;;;;;7389248;19;20478;-46
2022/07/31 07:38:45;;;;;;;4.73;3.80;;;25.40;54.50;;;;;;7390027;19;20378;-46
2022/07/31 07:41:16;;;;;;;3.20;3.00;;;25.50;55.00;;;;;;7388848;19;20394;-46
2022/07/31 07:43:46;;;;;;;3.40;3.10;;;25.70;54.70;;;;;;7390874;19;20380;-46
2022/07/31 07:46:15;;;;;;;3.97;3.57;;;25.90;54.40;;;;;;7389405;19;20391;-46
2022/07/31 07:48:52;;;;;;;5.23;4.27;;;26.00;54.60;;;;;;7388683;19;20941;-46
2022/07/31 07:51:34;;;;;;;4.27;3.30;;;26.00;54.70;;;;;;7387395;19;20428;-47
2022/07/31 07:54:26;;;;;;;4.30;3.90;;;25.90;55.10;;;;;;7389659;19;20920;-47
2022/07/31 07:57:16;;;;;;;4.40;3.53;;;26.00;54.80;;;;;;7390047;19;20408;-47
2022/07/31 08:00:07;;;;;;;3.70;3.40;;;26.00;54.80;;;;;;7389479;19;20815;-47
2022/07/31 08:02:46;;;;;;;4.67;3.57;;;26.00;55.00;;;;;;7388036;19;20392;-48
2022/07/31 08:05:17;;;;;;;3.50;3.20;;;26.20;55.00;;;;;;7387416;19;20383;-47
2022/07/31 08:07:47;;;;;;;4.53;3.60;;;26.30;55.10;;;;;;7388418;19;20372;-47
2022/07/31 08:10:38;;;;;;;5.00;3.57;;;26.30;55.30;;;;;;7387638;19;20391;-47
2022/07/31 08:13:17;;;;;;;4.83;3.60;;;26.40;55.20;;;;;;7388356;19;20439;-47
2022/07/31 08:16:06;;;;;;;7.40;3.70;;;26.50;55.20;;;;;;7386694;19;20765;-47
2022/07/31 08:18:40;;;;;;;6.13;3.50;;;26.60;55.10;;;;;;7387405;19;20415;-47
2022/07/31 08:21:10;;;;;;;3.67;3.47;;;26.70;55.00;;;;;;7386857;19;20364;-46
2022/07/31 08:23:39;;;;;;;4.03;3.50;;;26.80;54.80;;;;;;7386328;19;20776;-46
2022/07/31 08:26:13;;;;;;;3.80;3.50;;;26.60;55.00;;;;;;7388413;19;20761;-46
2022/07/31 08:28:44;;;;;;;4.57;3.47;;;26.50;55.50;;;;;;7387624;19;20379;-46
2022/07/31 08:31:14;;;;;;;3.67;3.37;;;26.60;56.10;;;;;;7386400;19;20402;-46
2022/07/31 08:33:56;;;;;;;4.50;3.70;;;26.90;56.00;;;;;;7387437;19;20391;-46
2022/07/31 08:36:26;;;;;;;3.97;3.57;;;26.90;55.90;;;;;;7387484;19;20384;-46
2022/07/31 08:38:56;;;;;;;3.20;2.90;;;27.00;56.40;;;;;;7388252;19;20380;-46
2022/07/31 08:41:50;;;;;;;3.93;3.53;;;27.10;56.20;;;;;;7387380;19;20383;-46
2022/07/31 08:44:19;;;;;;;4.10;3.70;;;27.40;56.00;;;;;;7387265;19;20407;-46
2022/07/31 08:46:49;;;;;;;3.90;3.50;;;27.70;54.90;;;;;;7388022;19;20383;-46
2022/07/31 08:49:21;;;;;;;4.40;2.80;;;28.00;54.10;;;;;;7386513;19;20905;-46
2022/07/31 08:51:51;;;;;;;3.23;2.90;;;28.30;53.70;;;;;;7386013;19;20395;-46
2022/07/31 08:54:24;;;;;;;3.53;3.07;;;28.70;52.90;;;;;;7387997;19;20380;-46
2022/07/31 08:56:57;;;;;;;4.93;3.20;;;29.20;51.60;;;;;;7386598;19;20420;-46
2022/07/31 08:59:26;;;;;;;4.63;2.90;;;29.40;49.80;;;;;;7386185;19;20376;-46
2022/07/31 09:01:57;;;;;;;7.20;2.90;;;29.40;50.20;;;;;;7386435;19;20969;-46
2022/07/31 09:04:27;;;;;;;4.50;2.60;;;29.60;49.20;;;;;;7385444;19;20368;-46
2022/07/31 09:06:59;;;;;;;7.10;3.73;;;29.90;49.40;;;;;;7387413;19;20372;-46
2022/07/31 09:09:28;;;;;;;2.93;2.73;;;30.20;47.80;;;;;;7386860;19;20391;-46
2022/07/31 09:12:01;;;;;;;2.20;2.00;;;30.60;46.10;;;;;;7385331;19;20376;-46
2022/07/31 09:14:50;;;;;;;2.20;2.00;;;30.90;42.30;;;;;;7388016;19;20379;-46
2022/07/31 09:17:19;;;;;;;5.60;2.03;;;31.40;41.40;;;;;;7385929;19;20372;-46
2022/07/31 09:19:51;;;;;;;3.10;2.33;;;31.90;40.90;;;;;;7386714;19;20461;-46
2022/07/31 09:22:25;;;;;;;2.73;2.50;;;32.30;40.90;;;;;;7384392;19;20376;-46
2022/07/31 09:25:10;;;;;;;3.03;2.50;;;32.70;39.50;;;;;;7386572;19;20417;-46
2022/07/31 09:27:43;;;;;;;2.53;2.33;;;33.30;37.80;;;;;;7388640;19;21183;-47
2022/07/31 09:30:13;;;;;;;2.70;2.07;;;33.30;37.30;;;;;;7386116;19;20392;-48
2022/07/31 09:33:16;;;;;;;2.70;1.90;;;33.50;36.70;;;;;;7384645;19;20824;-48
2022/07/31 09:36:07;;;;;;;2.83;2.20;;;34.00;36.80;;;;;;7388270;19;20850;-48
2022/07/31 09:38:41;;;;;;;2.50;2.03;;;34.50;36.10;;;;;;7384892;19;20379;-48
2022/07/31 09:41:29;;;;;;;2.57;1.87;;;34.90;35.70;;;;;;7387880;19;20372;-48
2022/07/31 09:44:06;;;;;;;3.60;2.00;;;35.50;34.80;;;;;;7387715;19;20376;-48
2022/07/31 09:46:41;;;;;;;3.23;2.17;;;35.90;33.30;;;;;;7383853;19;20376;-48
2022/07/31 09:49:11;;;;;;;2.20;2.00;;;36.10;32.90;;;;;;7385891;19;20367;-48
2022/07/31 09:51:44;;;;;;;2.53;1.83;;;36.50;33.00;;;;;;7385327;19;20392;-49
2022/07/31 09:54:23;;;;;;;3.30;1.70;;;37.20;31.80;;;;;;7385136;19;20384;-48
2022/07/31 09:57:13;;;;;;;2.30;1.70;;;37.50;30.50;;;;;;7384921;19;20361;-48
2022/07/31 09:59:48;;;;;;;2.40;2.00;;;38.20;29.60;;;;;;7385827;19;20423;-47
2022/07/31 10:02:21;;;;;;;2.80;1.87;;;37.50;30.50;;;;;;7384579;19;20392;-47
2022/07/31 10:04:55;;;;;;;3.90;2.03;;;37.10;31.00;;;;;;7385043;19;20399;-47
2022/07/31 10:07:34;;;;;;;2.70;2.20;;;37.40;30.30;;;;;;7384015;19;20380;-47
2022/07/31 10:10:13;;;;;;;2.00;1.90;;;38.10;29.30;;;;;;7385629;19;20379;-47
2022/07/31 10:13:03;;;;;;;2.70;1.50;;;38.30;28.60;;;;;;7382710;19;20925;-47
2022/07/31 10:15:38;;;;;;;2.67;1.70;;;38.60;28.90;;;;;;7384863;19;20383;-47
2022/07/31 10:18:33;;;;;;;2.03;1.80;;;39.50;28.50;;;;;;7384282;19;20738;-47
2022/07/31 10:21:38;;;;;;;3.03;2.00;;;40.30;27.50;;;;;;7384286;19;20391;-47
2022/07/31 10:24:15;;;;;;;1.87;1.77;;;40.00;27.40;;;;;;7383925;19;20390;-47
2022/07/31 10:26:45;;;;;;;2.77;2.03;;;39.80;27.70;;;;;;7383709;19;20405;-47
2022/07/31 10:29:18;;;;;;;1.80;1.60;;;39.40;28.10;;;;;;7382110;19;20420;-48
2022/07/31 10:31:51;;;;;;;2.60;2.17;;;38.80;28.30;;;;;;7383583;19;21032;-47
2022/07/31 10:34:21;;;;;;;5.30;2.20;;;38.10;28.70;;;;;;7381991;19;20738;-47
2022/07/31 10:37:35;;;;;;;2.70;2.07;;;37.40;29.90;;;;;;7383381;19;20371;-47
2022/07/31 10:40:48;;;;;;;1.80;1.70;;;36.60;31.20;;;;;;7383860;19;20393;-47
2022/07/31 10:43:26;;;;;;;2.43;1.67;;;36.40;30.40;;;;;;7382618;19;20381;-47
2022/07/31 10:46:09;;;;;;;2.00;1.53;;;36.60;29.80;;;;;;7388934;19;20390;-47
2022/07/31 10:48:56;;;;;;;2.67;2.47;;;37.30;29.20;;;;;;7392233;19;20760;-47
2022/07/31 10:51:56;;;;;;;3.90;2.90;;;37.60;29.70;;;;;;7391790;19;20979;-47
2022/07/31 10:54:49;;;;;;;2.97;2.77;;;36.40;30.90;;;;;;7389925;19;20380;-47
2022/07/31 10:57:45;;;;;;;5.80;2.90;;;35.30;32.30;;;;;;7390265;19;20369;-47
2022/07/31 11:00:38;;;;;;;4.00;2.43;;;34.30;33.80;;;;;;7386976;19;21508;-46
2022/07/31 11:03:45;;;;;;;3.37;2.90;;;33.40;34.50;;;;;;7388272;19;20834;-46
2022/07/31 11:06:28;;;;;;;2.90;2.40;;;32.40;35.70;;;;;;7390527;19;20760;-46
2022/07/31 11:09:00;;;;;;;3.00;2.73;;;31.60;37.10;;;;;;7389262;19;20376;-46
2022/07/31 11:11:50;;;;;;;2.70;2.50;;;31.20;38.60;;;;;;7389582;19;20932;-46
2022/07/31 11:14:39;;;;;;;2.60;2.40;;;31.30;38.60;;;;;;7391743;19;21290;-46
2022/07/31 11:17:35;;;;;;;3.37;2.60;;;31.20;38.50;;;;;;7390817;19;20371;-46
2022/07/31 11:20:26;;;;;;;6.23;2.40;;;30.90;39.50;;;;;;7391361;19;20387;-46
2022/07/31 11:23:03;;;;;;;2.73;2.53;;;30.70;39.90;;;;;;7389758;19;20383;-46
2022/07/31 11:25:36;;;;;;;3.77;2.50;;;31.10;39.20;;;;;;7391065;19;20391;-47
2022/07/31 11:28:13;;;;;;;2.40;2.13;;;32.20;37.60;;;;;;7389446;19;20380;-47
2022/07/31 11:30:53;;;;;;;2.13;1.93;;;33.20;35.70;;;;;;7390041;19;20389;-47
2022/07/31 11:33:34;;;;;;;2.63;1.80;;;35.30;33.60;;;;;;7385761;19;20382;-47
2022/07/31 11:36:15;;;;;;;2.40;1.70;;;37.20;30.10;;;;;;7389803;19;20420;-48
2022/07/31 11:38:48;;;;;;;2.30;1.83;;;38.60;28.50;;;;;;7388567;19;20391;-47
2022/07/31 11:41:22;;;;;;;2.13;1.93;;;37.60;28.60;;;;;;7388871;19;20383;-48
2022/07/31 11:43:53;;;;;;;2.07;1.70;;;36.30;30.10;;;;;;7389639;19;20376;-48
2022/07/31 11:46:27;;;;;;;2.00;1.90;;;35.50;31.30;;;;;;7390331;19;20909;-48
2022/07/31 11:48:57;;;;;;;3.00;2.13;;;35.00;32.10;;;;;;7390661;19;20382;-49
2022/07/31 11:51:29;;;;;;;2.17;1.93;;;34.50;32.70;;;;;;7390865;19;20799;-48
2022/07/31 11:54:01;;;;;;;3.40;1.80;;;34.20;33.90;;;;;;7389108;19;20383;-48
2022/07/31 11:56:31;;;;;;;2.93;2.23;;;33.60;34.60;;;;;;7390563;19;20384;-48
2022/07/31 11:59:01;;;;;;;2.37;2.00;;;33.60;34.60;;;;;;7387444;19;20773;-49
2022/07/31 12:01:31;;;;;;;2.30;2.10;;;33.80;34.80;;;;;;7387838;19;20487;-48
2022/07/31 12:04:01;;;;;;;2.90;1.87;;;35.00;33.40;;;;;;7384693;19;20384;-48
2022/07/31 12:06:33;;;;;;;2.80;1.97;;;36.10;31.70;;;;;;7390584;19;20451;-49
2022/07/31 12:09:05;;;;;;;3.60;1.80;;;37.10;31.50;;;;;;7388317;19;20421;-48
2022/07/31 12:11:37;;;;;;;2.10;1.90;;;37.90;29.40;;;;;;7389236;19;20967;-48
2022/07/31 12:14:07;;;;;;;2.30;1.53;;;38.00;29.40;;;;;;7387418;19;20389;-48
2022/07/31 12:16:42;;;;;;;4.60;1.73;;;37.50;29.30;;;;;;7388862;19;20463;-48
2022/07/31 12:19:12;;;;;;;1.87;1.77;;;37.30;29.60;;;;;;7388948;19;20380;-49
2022/07/31 12:21:42;;;;;;;3.77;1.80;;;37.10;29.80;;;;;;7388603;19;20377;-48
2022/07/31 12:24:18;;;;;;;2.20;1.70;;;36.70;30.00;;;;;;7388217;19;21257;-49
2022/07/31 12:26:52;;;;;;;2.17;1.97;;;36.00;31.00;;;;;;7389933;19;20901;-48
2022/07/31 12:29:32;;;;;;;2.10;1.70;;;35.50;32.20;;;;;;7388057;19;20397;-48
2022/07/31 12:32:02;;;;;;;4.17;1.67;;;36.70;30.70;;;;;;7387234;19;20417;-49
2022/07/31 12:34:33;;;;;;;2.20;1.50;;;38.10;29.30;;;;;;7390033;19;20416;-48
2022/07/31 12:37:04;;;;;;;2.40;1.80;;;38.80;28.20;;;;;;7387245;19;20387;-48
2022/07/31 12:39:39;;;;;;;2.93;1.83;;;38.60;28.20;;;;;;7387037;19;20898;-47
2022/07/31 12:42:10;;;;;;;1.57;1.37;;;37.60;29.30;;;;;;7387394;19;20391;-47
2022/07/31 12:44:49;;;;;;;2.13;1.83;;;36.20;30.10;;;;;;7389440;19;20792;-47
2022/07/31 12:47:22;;;;;;;2.30;1.77;;;35.50;31.60;;;;;;7386970;19;20420;-47
2022/07/31 12:49:52;;;;;;;5.63;1.90;;;34.90;32.40;;;;;;7387506;19;20512;-47
2022/07/31 12:52:22;;;;;;;1.80;1.70;;;34.20;33.70;;;;;;7386318;19;20415;-47
2022/07/31 12:54:56;;;;;;;2.57;2.00;;;33.80;34.20;;;;;;7387714;19;20380;-47
2022/07/31 12:57:26;;;;;;;3.30;2.30;;;33.50;35.10;;;;;;7388770;19;20369;-47
2022/07/31 12:59:59;;;;;;;2.13;1.87;;;33.40;35.60;;;;;;7386757;19;20431;-47
2022/07/31 13:02:28;;;;;;;2.53;1.60;;;34.60;34.40;;;;;;7387321;19;21216;-47
2022/07/31 13:04:58;;;;;;;3.37;1.80;;;36.00;31.90;;;;;;7389002;19;20383;-47
2022/07/31 13:07:28;;;;;;;3.63;2.07;;;36.20;31.20;;;;;;7386727;19;20388;-47
2022/07/31 13:10:00;;;;;;;3.17;1.90;;;36.60;31.10;;;;;;7388462;19;21401;-48
2022/07/31 13:12:30;;;;;;;1.90;1.67;;;37.50;30.50;;;;;;7386952;19;20384;-48
2022/07/31 13:15:00;;;;;;;1.50;1.40;;;38.60;28.90;;;;;;7388701;19;20376;-49
2022/07/31 13:17:29;;;;;;;1.70;1.60;;;38.30;29.00;;;;;;7358163;19;20555;-48
2022/07/31 13:19:59;;;;;;;2.00;1.80;;;38.20;29.10;;;;;;7387275;19;20467;-49
2022/07/31 13:22:28;;;;;;;2.03;1.67;;;38.30;29.30;;;;;;7385922;19;20380;-48
2022/07/31 13:25:00;;;;;;;1.70;1.60;;;38.60;29.10;;;;;;7388457;19;20386;-48
2022/07/31 13:27:32;;;;;;;2.37;1.63;;;39.50;28.20;;;;;;7386291;19;20368;-48
2022/07/31 13:30:01;;;;;;;1.80;1.63;;;40.40;26.40;;;;;;7387310;19;20440;-48